Airfield :
LOGIN :

Register | Disclaimer

   EN    FR    IT 

 










Legend :    VFR   Marginal VFR   IFR   Intensive IFR   Very Intensive IFR
Visi :
Ceiling :
>= 8 km
>= 3000ft
5 to 8 km
1000 to 3000 ft
1500m to 5 km
500 to 1000 ft
800 to 1500m
200 to 500 ft
< 800m
< 200 ft
Symbols :   Thunderstorms  Fog  Heavy snow  Heavy precipitations  Wind > 20 kt
SIGMETs :     Misc.  Thunderstorms  Icing  Turbulence  Mountain Waves  Volcanic Ashes






- Airport Elevation : 20 ft


EBFN - Koksijde

CURRENT METAR :
  • 290843Z AUTO 36010KT 9999 SCT026/// BKN059/// 12/06 Q1018 BLU

EXPIRED METARs :
  • 290825Z AUTO 36010KT 9999 SCT024/// SCT045/// 12/06 Q1018 WHT
  • 290755Z AUTO 34010KT 9999 SCT024/// 12/07 Q1018 WHT
  • 290744Z AUTO 34012KT 9999 -RA SCT024/// BKN058/// 12/06 Q1018 WHT
  • 290725Z AUTO 35012KT 9999 FEW025/// SCT058/// 12/06 Q1018 BLU
  • 290655Z AUTO 36011KT 9999 SCT027/// 12/06 Q1018 BLU
  • 290625Z AUTO 36010KT 9999 FEW025/// 12/05 Q1018 BLU
  • 290555Z AUTO 01009KT 9999 FEW026/// BKN059/// 12/06 Q1018 BLU

TAF TAF EBFN
Valid from the 29 at 07:00 until the 29 at 16:00 UTC


290541Z 2907/2916 36010G20KT 9999 SCT025 SCT040
TEMPO 2907/2916 35015G25KT 6000 -SHRA SCT015TCU SCT020 BKN030



MET'MAP, your aeronautical weather chart ! - Copyright ORBIFLY December 2007 - Disclaimer

ORBIFLY MET'MAP TEAM :

Programming & Development : Alexandra Zaïnal
Original concept : Baudouin d'Aumeries
Technical & hardware support : Manuel Goepfert
Assistance : Marc-Olivier Méhu

Contact : metmap@orbifly.com




SOURCES & CREDITS :

   NOAA